createdAt,value
2018-02-03T00:00:03.710Z,5.10
2018-02-03T00:02:31.301Z,5.10
2018-02-03T00:04:58.867Z,5.10
2018-02-03T00:07:26.468Z,5.00
2018-02-03T00:09:54.025Z,5.00
2018-02-03T00:12:21.666Z,5.00
2018-02-03T00:14:49.225Z,5.10
2018-02-03T00:17:16.800Z,5.10
2018-02-03T00:19:45.128Z,5.10
2018-02-03T00:22:13.468Z,5.10
2018-02-03T00:24:41.030Z,5.10
2018-02-03T00:27:08.618Z,5.20
2018-02-03T00:29:36.953Z,5.20
2018-02-03T00:32:04.536Z,5.20
2018-02-03T00:34:32.099Z,5.30
2018-02-03T00:36:59.678Z,5.30
2018-02-03T00:39:27.241Z,5.40
2018-02-03T00:41:54.824Z,5.30
2018-02-03T00:44:22.385Z,5.30
2018-02-03T00:46:49.982Z,5.30
2018-02-03T00:49:17.550Z,5.30
2018-02-03T00:51:45.112Z,5.20
2018-02-03T00:54:12.714Z,5.20
2018-02-03T00:56:40.579Z,5.20
2018-02-03T00:59:08.163Z,5.20
2018-02-03T01:01:35.720Z,5.20
2018-02-03T01:04:03.494Z,5.20
2018-02-03T01:06:31.052Z,5.10
2018-02-03T01:08:58.633Z,5.10
2018-02-03T01:11:26.189Z,5.00
2018-02-03T01:13:53.774Z,5.00
2018-02-03T01:16:21.340Z,5.00
2018-02-03T01:18:48.913Z,5.00
2018-02-03T01:21:16.469Z,5.10
2018-02-03T01:23:44.045Z,5.10
2018-02-03T01:26:11.609Z,4.90
2018-02-03T01:28:39.185Z,4.90
2018-02-03T01:31:08.248Z,4.90
2018-02-03T01:33:35.832Z,4.90
2018-02-03T01:36:03.397Z,4.90
2018-02-03T01:38:30.985Z,4.90
2018-02-03T01:40:59.307Z,4.90
2018-02-03T01:43:26.886Z,4.90
2018-02-03T01:45:54.486Z,4.80
2018-02-03T01:48:22.069Z,4.80
2018-02-03T01:50:49.634Z,4.90
2018-02-03T01:53:17.230Z,4.90
2018-02-03T01:55:44.787Z,4.80
2018-02-03T01:58:12.384Z,4.70
2018-02-03T02:00:39.953Z,4.70
2018-02-03T02:03:07.514Z,4.80
2018-02-03T02:05:35.090Z,4.80
2018-02-03T02:08:02.656Z,4.80
2018-02-03T02:10:30.241Z,4.70
2018-02-03T02:12:57.796Z,4.70
2018-02-03T02:15:25.372Z,4.70
2018-02-03T02:17:53.862Z,4.70
2018-02-03T02:20:21.444Z,4.70
2018-02-03T02:22:49.008Z,4.60
2018-02-03T02:25:16.687Z,4.60
2018-02-03T02:27:44.250Z,4.60
2018-02-03T02:30:11.829Z,4.60
2018-02-03T02:32:39.397Z,4.60
2018-02-03T02:35:06.980Z,4.60
2018-02-03T02:37:34.557Z,4.60
2018-02-03T02:40:02.140Z,4.50
2018-02-03T02:42:29.693Z,4.50
2018-02-03T02:44:57.269Z,4.60
2018-02-03T02:47:24.836Z,4.50
2018-02-03T02:49:52.417Z,4.50
2018-02-03T02:52:19.976Z,4.50
2018-02-03T02:54:47.553Z,4.60
2018-02-03T02:57:15.118Z,4.60
2018-02-03T02:59:43.465Z,4.60
2018-02-03T03:02:11.026Z,4.60
2018-02-03T03:04:38.617Z,4.60
2018-02-03T03:07:06.175Z,4.70
2018-02-03T03:09:34.544Z,4.60
2018-02-03T03:12:02.865Z,4.60
2018-02-03T03:14:30.461Z,4.60
2018-02-03T03:16:58.024Z,4.70
2018-02-03T03:19:25.588Z,4.60
2018-02-03T03:21:53.179Z,4.60
2018-02-03T03:24:20.741Z,4.50
2018-02-03T03:26:48.324Z,4.50
2018-02-03T03:29:15.889Z,4.50
2018-02-03T03:31:43.472Z,4.40
2018-02-03T03:34:11.051Z,4.40
2018-02-03T03:36:38.649Z,4.50
2018-02-03T03:39:06.225Z,4.50
2018-02-03T03:41:33.809Z,4.40
2018-02-03T03:44:01.376Z,4.40
2018-02-03T03:46:28.965Z,4.40
2018-02-03T03:48:56.539Z,4.40
2018-02-03T03:51:24.134Z,4.40
2018-02-03T03:53:51.701Z,4.50
2018-02-03T03:56:19.288Z,4.50
2018-02-03T03:58:47.625Z,4.40
2018-02-03T04:01:15.220Z,4.40
2018-02-03T04:03:42.800Z,4.40
2018-02-03T04:06:10.379Z,4.40
2018-02-03T04:08:37.946Z,4.40
2018-02-03T04:11:05.529Z,4.50
2018-02-03T04:13:33.088Z,4.40
2018-02-03T04:16:00.677Z,4.40
2018-02-03T04:18:28.232Z,4.40
2018-02-03T04:20:56.595Z,4.50
2018-02-03T04:23:24.165Z,4.40
2018-02-03T04:25:51.761Z,4.40
2018-02-03T04:28:19.328Z,4.50
2018-02-03T04:30:46.885Z,4.40
2018-02-03T04:33:14.476Z,4.40
2018-02-03T04:35:42.041Z,4.40
2018-02-03T04:38:09.662Z,4.40
2018-02-03T04:40:37.220Z,4.40
2018-02-03T04:43:04.803Z,4.40
2018-02-03T04:45:33.133Z,4.40
2018-02-03T04:48:00.720Z,4.40
2018-02-03T04:50:28.281Z,4.40
2018-02-03T04:52:55.865Z,4.40
2018-02-03T04:55:24.940Z,4.40
2018-02-03T04:57:52.522Z,4.50
2018-02-03T05:00:20.134Z,4.50
2018-02-03T05:02:47.764Z,4.60
2018-02-03T05:05:16.098Z,4.50
2018-02-03T05:07:43.696Z,4.40
2018-02-03T05:10:11.264Z,4.50
2018-02-03T05:12:39.617Z,4.40
2018-02-03T05:15:07.179Z,4.40
2018-02-03T05:17:34.770Z,4.40
2018-02-03T05:20:03.096Z,4.30
2018-02-03T05:22:30.676Z,4.30
2018-02-03T05:24:58.248Z,4.30
2018-02-03T05:27:25.839Z,4.30
2018-02-03T05:29:53.398Z,4.30
2018-02-03T05:32:20.988Z,4.30
2018-02-03T05:34:48.548Z,4.30
2018-02-03T05:37:17.192Z,4.30
2018-02-03T05:39:45.604Z,4.30
2018-02-03T05:42:13.201Z,4.20
2018-02-03T05:47:44.469Z,4.20
2018-02-03T05:50:12.029Z,4.30
2018-02-03T05:52:40.381Z,4.20
2018-02-03T05:55:07.951Z,4.10
2018-02-03T05:57:35.537Z,4.20
2018-02-03T06:00:03.317Z,4.20
2018-02-03T06:02:30.904Z,4.20
2018-02-03T06:04:58.469Z,4.20
2018-02-03T06:07:26.833Z,4.10
2018-02-03T06:09:54.420Z,4.10
2018-02-03T06:12:21.989Z,4.20
2018-02-03T06:14:49.602Z,4.20
2018-02-03T06:17:17.165Z,4.10
2018-02-03T06:19:44.753Z,4.10
2018-02-03T06:22:12.312Z,4.10
2018-02-03T06:24:39.899Z,4.10
2018-02-03T06:27:07.465Z,4.10
2018-02-03T06:29:35.818Z,4.10
2018-02-03T06:32:03.384Z,4.00
2018-02-03T06:34:30.979Z,4.10
2018-02-03T06:36:58.541Z,4.10
2018-02-03T06:39:26.128Z,4.10
2018-02-03T06:41:53.685Z,4.10
2018-02-03T06:44:21.278Z,4.10
2018-02-03T06:46:48.837Z,4.20
2018-02-03T06:49:16.427Z,4.20
2018-02-03T06:51:43.995Z,4.20
2018-02-03T06:54:11.580Z,4.20
2018-02-03T06:56:39.144Z,4.20
2018-02-03T06:59:06.751Z,4.10
2018-02-03T07:01:35.077Z,4.10
2018-02-03T07:04:02.665Z,4.10
2018-02-03T07:06:30.233Z,4.10
2018-02-03T07:08:58.585Z,4.00
2018-02-03T07:11:26.144Z,4.00
2018-02-03T07:13:53.732Z,4.00
2018-02-03T07:16:21.288Z,4.00
2018-02-03T07:18:49.641Z,4.10
2018-02-03T07:21:17.340Z,4.10
2018-02-03T07:23:44.925Z,4.10
2018-02-03T07:26:12.490Z,4.10
2018-02-03T07:28:40.089Z,4.10
2018-02-03T07:31:07.666Z,4.10
2018-02-03T07:33:36.010Z,4.20
2018-02-03T07:36:03.602Z,4.20
2018-02-03T07:38:31.161Z,4.30
2018-02-03T07:40:59.521Z,4.20
2018-02-03T07:43:27.093Z,4.20
2018-02-03T07:45:54.697Z,4.10
2018-02-03T07:48:22.271Z,4.20
2018-02-03T07:50:49.865Z,4.20
2018-02-03T07:53:17.429Z,4.10
2018-02-03T07:55:45.042Z,4.10
2018-02-03T07:58:12.601Z,4.10
2018-02-03T08:00:40.193Z,4.10
2018-02-03T08:03:07.789Z,4.10
2018-02-03T08:05:35.381Z,4.20
2018-02-03T08:08:03.013Z,4.20
2018-02-03T08:10:30.629Z,4.20
2018-02-03T08:12:58.188Z,4.20
2018-02-03T08:15:25.777Z,4.30
2018-02-03T08:17:54.105Z,4.10
2018-02-03T08:20:21.688Z,4.20
2018-02-03T08:22:49.248Z,4.20
2018-02-03T08:25:16.834Z,4.20
2018-02-03T08:27:45.167Z,4.20
2018-02-03T08:30:12.772Z,4.20
2018-02-03T08:32:40.329Z,4.30
2018-02-03T08:35:07.888Z,4.20
2018-02-03T08:37:36.244Z,4.20
2018-02-03T08:40:04.589Z,4.40
2018-02-03T08:42:32.177Z,4.40
2018-02-03T08:44:59.762Z,4.40
2018-02-03T08:47:28.122Z,4.40
2018-02-03T08:49:56.013Z,4.40
2018-02-03T08:52:23.601Z,4.40
2018-02-03T08:54:51.169Z,4.40
2018-02-03T08:57:18.760Z,4.40
2018-02-03T08:59:46.322Z,4.40
2018-02-03T09:02:13.937Z,4.40
2018-02-03T09:04:41.494Z,4.50
2018-02-03T09:07:09.077Z,4.50
2018-02-03T09:09:36.647Z,4.50
2018-02-03T09:12:06.145Z,4.50
2018-02-03T09:14:33.714Z,4.60
2018-02-03T09:17:01.302Z,4.70
2018-02-03T09:19:29.628Z,4.70
2018-02-03T09:21:57.208Z,4.70
2018-02-03T09:24:24.783Z,4.80
2018-02-03T09:26:52.369Z,4.80
2018-02-03T09:29:19.929Z,4.80
2018-02-03T09:31:47.556Z,4.80
2018-02-03T09:34:15.084Z,4.80
2018-02-03T09:36:42.673Z,4.80
2018-02-03T09:39:10.239Z,4.90
2018-02-03T09:41:37.830Z,4.90
2018-02-03T09:44:05.388Z,5.00
2018-02-03T09:46:32.951Z,5.00
2018-02-03T09:49:00.537Z,5.10
2018-02-03T09:51:28.105Z,5.20
2018-02-03T09:53:55.689Z,5.30
2018-02-03T09:56:24.053Z,5.30
2018-02-03T09:58:51.623Z,5.30
2018-02-03T10:01:19.184Z,5.30
2018-02-03T10:03:46.775Z,5.30
2018-02-03T10:06:14.328Z,5.40
2018-02-03T10:08:41.905Z,5.50
2018-02-03T10:11:09.465Z,5.40
2018-02-03T10:13:37.053Z,5.60
2018-02-03T10:16:04.626Z,5.60
2018-02-03T10:18:32.210Z,5.70
2018-02-03T10:21:00.546Z,5.70
2018-02-03T10:23:28.128Z,5.60
2018-02-03T10:25:55.684Z,5.70
2018-02-03T10:28:23.271Z,5.80
2018-02-03T10:30:50.830Z,5.80
2018-02-03T10:33:18.446Z,5.80
2018-02-03T10:35:45.998Z,5.80
2018-02-03T10:38:13.584Z,5.80
2018-02-03T10:40:41.918Z,5.90
2018-02-03T10:43:09.507Z,5.90
2018-02-03T10:45:37.069Z,5.90
2018-02-03T10:48:04.652Z,6.00
2018-02-03T10:50:32.973Z,5.90
2018-02-03T10:53:00.552Z,5.90
2018-02-03T10:55:28.110Z,5.90
2018-02-03T10:57:55.669Z,5.90
2018-02-03T11:00:23.249Z,5.90
2018-02-03T11:02:50.808Z,5.90
2018-02-03T11:05:18.384Z,6.00
2018-02-03T11:07:46.714Z,6.10
2018-02-03T11:10:14.296Z,6.00
2018-02-03T11:12:41.856Z,6.10
2018-02-03T11:15:09.436Z,6.10
2018-02-03T11:17:37.760Z,6.00
2018-02-03T11:20:05.370Z,6.00
2018-02-03T11:22:32.933Z,6.10
2018-02-03T11:25:00.516Z,6.10
2018-02-03T11:27:28.088Z,6.00
2018-02-03T11:29:55.678Z,6.00
2018-02-03T11:32:24.098Z,5.90
2018-02-03T11:34:51.677Z,5.90
2018-02-03T11:37:19.232Z,5.90
2018-02-03T11:39:46.821Z,5.80
2018-02-03T11:42:14.389Z,5.90
2018-02-03T11:44:41.972Z,5.80
2018-02-03T11:47:10.347Z,5.70
2018-02-03T11:49:37.923Z,5.70
2018-02-03T11:52:05.486Z,5.80
2018-02-03T11:54:33.071Z,5.60
2018-02-03T11:57:00.764Z,5.60
2018-02-03T11:59:28.358Z,5.60
2018-02-03T12:01:55.921Z,5.80
2018-02-03T12:04:23.512Z,5.70
2018-02-03T12:06:51.079Z,5.60
2018-02-03T12:09:18.656Z,5.60
2018-02-03T12:11:46.213Z,5.60
2018-02-03T12:14:13.801Z,5.70
2018-02-03T12:16:41.378Z,5.70
2018-02-03T12:19:08.966Z,5.60
2018-02-03T12:21:36.533Z,5.60
2018-02-03T12:24:04.097Z,5.60
2018-02-03T12:26:31.680Z,5.60
2018-02-03T12:28:59.249Z,5.50
2018-02-03T12:31:27.601Z,5.40
2018-02-03T12:33:55.174Z,5.40
2018-02-03T12:36:22.770Z,5.40
2018-02-03T12:38:50.345Z,5.50
2018-02-03T12:41:17.925Z,5.50
2018-02-03T12:43:45.481Z,5.50
2018-02-03T12:46:13.077Z,5.60
2018-02-03T12:48:40.636Z,5.70
2018-02-03T12:51:08.227Z,5.80
2018-02-03T12:53:35.797Z,5.70
2018-02-03T12:56:03.388Z,5.80
2018-02-03T12:58:30.950Z,5.80
2018-02-03T13:00:58.537Z,5.80
2018-02-03T13:03:26.325Z,5.80
2018-02-03T13:05:53.907Z,5.80
2018-02-03T13:08:21.642Z,5.80
2018-02-03T13:10:49.224Z,5.70
2018-02-03T13:13:16.796Z,5.70
2018-02-03T13:15:44.380Z,5.70
2018-02-03T13:18:11.950Z,5.90
2018-02-03T13:20:39.527Z,5.90
2018-02-03T13:23:07.852Z,5.80
2018-02-03T13:25:35.433Z,5.70
2018-02-03T13:28:02.994Z,5.80
2018-02-03T13:30:30.585Z,5.90
2018-02-03T13:32:58.912Z,6.00
2018-02-03T13:35:26.509Z,6.00
2018-02-03T13:37:54.085Z,6.00
2018-02-03T13:40:21.648Z,6.00
2018-02-03T13:42:49.234Z,6.00
2018-02-03T13:45:16.797Z,6.10
2018-02-03T13:47:44.389Z,6.10
2018-02-03T13:50:11.953Z,6.10
2018-02-03T13:52:39.546Z,6.20
2018-02-03T13:55:07.104Z,6.30
2018-02-03T13:57:34.695Z,6.30
2018-02-03T14:00:02.265Z,6.40
2018-02-03T14:02:29.849Z,6.20
2018-02-03T14:04:57.420Z,6.30
2018-02-03T14:07:25.769Z,6.30
2018-02-03T14:09:53.334Z,6.30
2018-02-03T14:12:20.924Z,6.20
2018-02-03T14:14:48.488Z,6.20
2018-02-03T14:17:16.082Z,6.10
2018-02-03T14:19:43.654Z,6.10
2018-02-03T14:22:11.245Z,6.10
2018-02-03T14:24:45.254Z,5.80
2018-02-03T14:27:12.831Z,5.80
2018-02-03T14:29:40.408Z,5.90
2018-02-03T14:32:07.992Z,5.90
2018-02-03T14:34:35.557Z,5.90
2018-02-03T14:37:03.137Z,5.90
2018-02-03T14:39:30.706Z,5.90
2018-02-03T14:41:59.068Z,5.90
2018-02-03T14:44:26.639Z,5.90
2018-02-03T14:46:54.455Z,5.90
2018-02-03T14:49:22.026Z,5.90
2018-02-03T14:51:49.618Z,5.90
2018-02-03T14:54:17.185Z,5.80
2018-02-03T14:56:44.744Z,5.80
2018-02-03T14:59:13.099Z,5.70
2018-02-03T15:01:40.676Z,5.70
2018-02-03T15:04:09.074Z,5.70
2018-02-03T15:06:36.628Z,5.70
2018-02-03T15:09:04.222Z,5.70
2018-02-03T15:11:31.780Z,5.60
2018-02-03T15:13:59.369Z,5.60
2018-02-03T15:16:26.928Z,5.60
2018-02-03T15:18:54.514Z,5.70
2018-02-03T15:21:22.081Z,5.70
2018-02-03T15:23:50.437Z,5.60
2018-02-03T15:26:18.007Z,5.70
2018-02-03T15:28:45.595Z,5.60
2018-02-03T15:31:13.163Z,5.60
2018-02-03T15:33:40.749Z,5.50
2018-02-03T15:36:09.074Z,5.60
2018-02-03T15:38:36.657Z,5.50
2018-02-03T15:41:04.217Z,5.50
2018-02-03T15:43:31.806Z,5.50
2018-02-03T15:45:59.383Z,5.50
2018-02-03T15:48:26.977Z,5.50
2018-02-03T15:50:54.545Z,5.40
2018-02-03T15:53:22.124Z,5.40
2018-02-03T15:55:49.689Z,5.40
2018-02-03T15:58:17.276Z,5.40
2018-02-03T16:00:45.626Z,5.40
2018-02-03T16:03:13.174Z,5.30
2018-02-03T16:05:40.765Z,5.30
2018-02-03T16:08:08.329Z,5.30
2018-02-03T16:10:35.947Z,5.30
2018-02-03T16:13:03.501Z,5.30
2018-02-03T16:15:31.084Z,5.20
2018-02-03T16:17:58.655Z,5.30
2018-02-03T16:20:26.236Z,5.20
2018-02-03T16:22:53.797Z,5.10
2018-02-03T16:25:21.380Z,5.10
2018-02-03T16:27:48.940Z,5.10
2018-02-03T16:30:16.534Z,5.10
2018-02-03T16:32:44.149Z,5.10
2018-02-03T16:35:12.497Z,5.00
2018-02-03T16:37:40.056Z,5.00
2018-02-03T16:40:07.631Z,5.00
2018-02-03T16:42:35.195Z,4.90
2018-02-03T16:45:03.536Z,4.90
2018-02-03T16:47:31.095Z,4.90
2018-02-03T16:49:58.672Z,4.80
2018-02-03T16:52:26.239Z,4.90
2018-02-03T16:54:54.591Z,4.70
2018-02-03T16:57:22.153Z,4.70
2018-02-03T16:59:49.747Z,4.70
2018-02-03T17:02:17.313Z,4.70
2018-02-03T17:04:44.905Z,4.50
2018-02-03T17:07:12.470Z,4.50
2018-02-03T17:09:40.062Z,4.60
2018-02-03T17:12:07.615Z,4.60
2018-02-03T17:14:35.179Z,4.60
2018-02-03T17:17:02.756Z,4.50
2018-02-03T17:19:30.321Z,4.40
2018-02-03T17:21:57.900Z,4.30
2018-02-03T17:24:25.456Z,4.20
2018-02-03T17:26:53.038Z,4.20
2018-02-03T17:29:20.603Z,4.30
2018-02-03T17:31:48.185Z,4.20
2018-02-03T17:34:15.753Z,4.10
2018-02-03T17:36:48.964Z,4.10
2018-02-03T17:39:18.320Z,4.10
2018-02-03T17:41:45.908Z,4.20
2018-02-03T17:44:13.471Z,4.20
2018-02-03T17:46:46.796Z,4.10
2018-02-03T17:49:14.352Z,4.20
2018-02-03T17:51:41.943Z,4.20
2018-02-03T17:54:09.508Z,4.10
2018-02-03T17:56:42.784Z,4.10
2018-02-03T17:59:10.344Z,4.20
2018-02-03T18:01:37.928Z,4.10
2018-02-03T18:04:05.484Z,4.00
2018-02-03T18:06:38.800Z,4.00
2018-02-03T18:09:07.128Z,4.00
2018-02-03T18:11:34.727Z,4.00
2018-02-03T18:14:02.301Z,4.10
2018-02-03T18:16:29.885Z,4.20
2018-02-03T18:18:57.453Z,4.10
2018-02-03T18:21:25.046Z,4.10
2018-02-03T18:23:52.613Z,4.00
2018-02-03T18:26:20.200Z,3.90
2018-02-03T18:28:47.756Z,3.90
2018-02-03T18:31:16.151Z,3.70
2018-02-03T18:33:44.457Z,3.80
2018-02-03T18:36:12.040Z,3.80
2018-02-03T18:38:39.605Z,3.60
2018-02-03T18:41:07.190Z,3.70
2018-02-03T18:43:35.520Z,3.70
2018-02-03T18:46:03.109Z,3.70
2018-02-03T18:48:30.669Z,3.60
2018-02-03T18:50:58.260Z,3.70
2018-02-03T18:53:25.824Z,3.80
2018-02-03T18:55:53.388Z,3.90
2018-02-03T18:58:20.963Z,3.90
2018-02-03T19:00:48.516Z,3.60
2018-02-03T19:03:16.097Z,3.50
2018-02-03T19:05:43.677Z,3.50
2018-02-03T19:08:11.265Z,3.60
2018-02-03T19:10:39.596Z,3.60
2018-02-03T19:13:07.188Z,3.60
2018-02-03T19:15:35.555Z,3.40
2018-02-03T19:18:03.910Z,3.30
2018-02-03T19:20:31.481Z,3.20
2018-02-03T19:22:59.065Z,3.20
2018-02-03T19:25:26.627Z,3.20
2018-02-03T19:27:55.022Z,3.20
2018-02-03T19:30:22.647Z,3.20
2018-02-03T19:32:50.244Z,3.40
2018-02-03T19:35:17.854Z,3.30
2018-02-03T19:37:45.444Z,3.20
2018-02-03T19:40:13.788Z,3.30
2018-02-03T19:42:41.491Z,3.30
2018-02-03T19:45:09.060Z,3.30
2018-02-03T19:47:36.647Z,3.30
2018-02-03T19:50:04.256Z,3.30
2018-02-03T19:52:32.657Z,3.30
2018-02-03T19:55:00.212Z,3.30
2018-02-03T19:57:27.909Z,3.30
2018-02-03T19:59:56.224Z,3.30
2018-02-03T20:02:24.548Z,3.20
2018-02-03T20:04:52.179Z,3.20
2018-02-03T20:07:19.746Z,3.20
2018-02-03T20:09:47.327Z,3.20
2018-02-03T20:12:14.940Z,3.30
2018-02-03T20:14:42.575Z,3.40
2018-02-03T20:17:10.137Z,3.30
2018-02-03T20:19:37.724Z,3.20
2018-02-03T20:22:06.102Z,3.20
2018-02-03T20:24:34.509Z,3.10
2018-02-03T20:27:02.124Z,3.10
2018-02-03T20:29:29.759Z,3.20
2018-02-03T20:31:57.317Z,3.30
2018-02-03T20:34:24.964Z,3.40
2018-02-03T20:36:52.533Z,3.40
2018-02-03T20:39:20.159Z,3.40
2018-02-03T20:41:47.768Z,3.40
2018-02-03T20:44:15.408Z,3.40
2018-02-03T20:46:42.972Z,3.50
2018-02-03T20:49:10.594Z,3.50
2018-02-03T20:51:38.187Z,3.40
2018-02-03T20:54:05.768Z,3.30
2018-02-03T20:56:33.333Z,3.30
2018-02-03T20:59:00.922Z,3.40
2018-02-03T21:01:29.249Z,3.40
2018-02-03T21:03:56.888Z,3.40
2018-02-03T21:06:24.512Z,3.40
2018-02-03T21:08:52.100Z,3.40
2018-02-03T21:11:19.703Z,3.40
2018-02-03T21:13:47.280Z,3.50
2018-02-03T21:16:15.662Z,3.40
2018-02-03T21:18:43.995Z,3.50
2018-02-03T21:21:11.583Z,3.50
2018-02-03T21:23:39.178Z,3.50
2018-02-03T21:26:07.000Z,3.50
2018-02-03T21:28:34.616Z,3.50
2018-02-03T21:31:02.213Z,3.40
2018-02-03T21:33:29.777Z,3.40
2018-02-03T21:35:57.411Z,3.40
2018-02-03T21:38:24.961Z,3.40
2018-02-03T21:40:52.554Z,3.50
2018-02-03T21:43:20.168Z,3.40
2018-02-03T21:45:47.804Z,3.40
2018-02-03T21:48:15.360Z,3.40
2018-02-03T21:50:43.708Z,3.60
2018-02-03T21:53:11.273Z,3.50
2018-02-03T21:55:38.865Z,3.60
2018-02-03T21:58:06.437Z,3.50
2018-02-03T22:00:34.034Z,3.60
2018-02-03T22:03:01.647Z,3.60
2018-02-03T22:05:29.228Z,3.70
2018-02-03T22:07:56.793Z,3.70
2018-02-03T22:10:24.431Z,3.80
2018-02-03T22:12:52.049Z,3.90
2018-02-03T22:15:19.693Z,3.70
2018-02-03T22:17:47.253Z,3.70
2018-02-03T22:20:14.845Z,3.80
2018-02-03T22:22:43.181Z,3.90
2018-02-03T22:25:10.822Z,3.80
2018-02-03T22:27:38.389Z,3.80
2018-02-03T22:30:06.020Z,3.80
2018-02-03T22:32:33.576Z,3.70
2018-02-03T22:35:01.169Z,3.70
2018-02-03T22:37:28.761Z,3.60
2018-02-03T22:39:56.331Z,3.60
2018-02-03T22:42:23.973Z,3.60
2018-02-03T22:44:51.532Z,3.60
2018-02-03T22:47:19.117Z,3.60
2018-02-03T22:49:46.681Z,3.70
2018-02-03T22:52:15.037Z,3.60
2018-02-03T22:54:42.601Z,3.60
2018-02-03T22:57:10.239Z,3.60
2018-02-03T22:59:37.797Z,3.70
2018-02-03T23:02:05.393Z,3.50
2018-02-03T23:04:32.964Z,3.40
2018-02-03T23:07:01.322Z,3.30
2018-02-03T23:09:29.656Z,3.30
2018-02-03T23:11:57.251Z,3.30
2018-02-03T23:14:24.816Z,3.20
2018-02-03T23:16:52.423Z,3.30
2018-02-03T23:19:19.988Z,3.30
2018-02-03T23:21:47.573Z,3.30
2018-02-03T23:24:15.181Z,3.30
2018-02-03T23:26:42.757Z,3.20
2018-02-03T23:29:10.320Z,3.20
2018-02-03T23:31:37.909Z,3.30
2018-02-03T23:34:05.477Z,3.30
2018-02-03T23:36:33.936Z,3.40
2018-02-03T23:39:01.505Z,3.40
2018-02-03T23:41:29.068Z,3.30
2018-02-03T23:43:56.654Z,3.30
2018-02-03T23:46:24.991Z,3.30
2018-02-03T23:48:52.576Z,3.30
2018-02-03T23:51:20.136Z,3.30
2018-02-03T23:53:47.712Z,3.40
2018-02-03T23:56:16.045Z,3.30
2018-02-03T23:58:43.645Z,3.30
